sensor_id;sensor_type;location;lat;lon;timestamp;temperature;humidity
32787;DHT22;19139;49.372;8.580;2023-06-14T00:00:02;23.70;67.50
32787;DHT22;19139;49.372;8.580;2023-06-14T00:02:30;23.70;67.50
32787;DHT22;19139;49.372;8.580;2023-06-14T00:04:57;23.70;67.50
32787;DHT22;19139;49.372;8.580;2023-06-14T00:07:36;23.70;67.50
32787;DHT22;19139;49.372;8.580;2023-06-14T00:10:05;23.70;67.50
32787;DHT22;19139;49.372;8.580;2023-06-14T00:12:31;23.70;67.60
32787;DHT22;19139;49.372;8.580;2023-06-14T00:14:58;23.70;67.70
32787;DHT22;19139;49.372;8.580;2023-06-14T00:17:25;23.70;67.60
32787;DHT22;19139;49.372;8.580;2023-06-14T00:19:59;23.60;67.60
32787;DHT22;19139;49.372;8.580;2023-06-14T00:22:26;23.60;67.60
32787;DHT22;19139;49.372;8.580;2023-06-14T00:24:55;23.60;67.60
32787;DHT22;19139;49.372;8.580;2023-06-14T00:27:22;23.70;67.60
32787;DHT22;19139;49.372;8.580;2023-06-14T00:29:49;23.70;67.60
32787;DHT22;19139;49.372;8.580;2023-06-14T00:32:16;23.70;67.60
32787;DHT22;19139;49.372;8.580;2023-06-14T00:34:42;23.80;67.50
32787;DHT22;19139;49.372;8.580;2023-06-14T00:37:09;23.80;67.60
32787;DHT22;19139;49.372;8.580;2023-06-14T00:39:36;23.80;67.60
32787;DHT22;19139;49.372;8.580;2023-06-14T00:42:02;23.70;67.60
32787;DHT22;19139;49.372;8.580;2023-06-14T00:44:29;23.80;67.60
32787;DHT22;19139;49.372;8.580;2023-06-14T00:46:56;23.80;67.50
32787;DHT22;19139;49.372;8.580;2023-06-14T00:49:23;23.80;67.60
32787;DHT22;19139;49.372;8.580;2023-06-14T00:51:50;23.80;67.60
32787;DHT22;19139;49.372;8.580;2023-06-14T00:54:17;23.80;67.60
32787;DHT22;19139;49.372;8.580;2023-06-14T00:56:44;23.80;67.60
32787;DHT22;19139;49.372;8.580;2023-06-14T00:59:11;23.80;67.60
32787;DHT22;19139;49.372;8.580;2023-06-14T01:01:39;23.80;67.60
32787;DHT22;19139;49.372;8.580;2023-06-14T01:04:06;23.80;67.50
32787;DHT22;19139;49.372;8.580;2023-06-14T01:06:35;23.90;67.50
32787;DHT22;19139;49.372;8.580;2023-06-14T01:09:18;23.90;67.30
32787;DHT22;19139;49.372;8.580;2023-06-14T01:12:07;23.90;67.30
32787;DHT22;19139;49.372;8.580;2023-06-14T01:14:38;23.90;67.10
32787;DHT22;19139;49.372;8.580;2023-06-14T01:17:05;23.80;67.10
32787;DHT22;19139;49.372;8.580;2023-06-14T01:19:34;23.80;67.80
32787;DHT22;19139;49.372;8.580;2023-06-14T01:22:01;23.80;67.00
32787;DHT22;19139;49.372;8.580;2023-06-14T01:24:28;23.80;66.90
32787;DHT22;19139;49.372;8.580;2023-06-14T01:26:59;23.80;66.70
32787;DHT22;19139;49.372;8.580;2023-06-14T01:29:27;23.80;66.70
32787;DHT22;19139;49.372;8.580;2023-06-14T01:31:54;23.80;66.70
32787;DHT22;19139;49.372;8.580;2023-06-14T01:34:21;23.70;66.70
32787;DHT22;19139;49.372;8.580;2023-06-14T01:36:49;23.80;66.60
32787;DHT22;19139;49.372;8.580;2023-06-14T01:39:17;23.80;66.40
32787;DHT22;19139;49.372;8.580;2023-06-14T01:41:45;23.70;66.50
32787;DHT22;19139;49.372;8.580;2023-06-14T01:44:14;23.70;66.50
32787;DHT22;19139;49.372;8.580;2023-06-14T01:46:43;23.60;67.20
32787;DHT22;19139;49.372;8.580;2023-06-14T01:49:11;23.60;66.70
32787;DHT22;19139;49.372;8.580;2023-06-14T01:51:37;23.50;66.80
32787;DHT22;19139;49.372;8.580;2023-06-14T01:54:04;23.50;67.20
32787;DHT22;19139;49.372;8.580;2023-06-14T01:56:31;23.40;67.40
32787;DHT22;19139;49.372;8.580;2023-06-14T01:58:59;23.40;67.60
32787;DHT22;19139;49.372;8.580;2023-06-14T02:01:25;23.30;67.80
32787;DHT22;19139;49.372;8.580;2023-06-14T02:03:53;23.30;68.00
32787;DHT22;19139;49.372;8.580;2023-06-14T02:06:20;23.30;68.20
32787;DHT22;19139;49.372;8.580;2023-06-14T02:08:46;23.30;68.40
32787;DHT22;19139;49.372;8.580;2023-06-14T02:11:13;23.20;68.40
32787;DHT22;19139;49.372;8.580;2023-06-14T02:13:40;23.20;68.50
32787;DHT22;19139;49.372;8.580;2023-06-14T02:16:06;23.20;68.50
32787;DHT22;19139;49.372;8.580;2023-06-14T02:18:33;23.10;68.40
32787;DHT22;19139;49.372;8.580;2023-06-14T02:21:00;23.10;68.60
32787;DHT22;19139;49.372;8.580;2023-06-14T02:23:27;23.10;68.70
32787;DHT22;19139;49.372;8.580;2023-06-14T02:25:53;23.10;68.80
32787;DHT22;19139;49.372;8.580;2023-06-14T02:28:20;23.00;69.00
32787;DHT22;19139;49.372;8.580;2023-06-14T02:30:47;23.00;69.10
32787;DHT22;19139;49.372;8.580;2023-06-14T02:33:13;23.00;69.00
32787;DHT22;19139;49.372;8.580;2023-06-14T02:35:40;23.00;69.00
32787;DHT22;19139;49.372;8.580;2023-06-14T02:38:08;23.00;69.10
32787;DHT22;19139;49.372;8.580;2023-06-14T02:40:34;23.00;69.20
32787;DHT22;19139;49.372;8.580;2023-06-14T02:43:01;23.00;69.40
32787;DHT22;19139;49.372;8.580;2023-06-14T02:45:28;23.00;69.30
32787;DHT22;19139;49.372;8.580;2023-06-14T02:47:55;23.10;69.20
32787;DHT22;19139;49.372;8.580;2023-06-14T02:50:22;23.10;69.10
32787;DHT22;19139;49.372;8.580;2023-06-14T02:52:50;23.10;69.00
32787;DHT22;19139;49.372;8.580;2023-06-14T02:55:17;23.20;68.90
32787;DHT22;19139;49.372;8.580;2023-06-14T02:57:44;23.10;68.60
32787;DHT22;19139;49.372;8.580;2023-06-14T03:00:11;23.10;68.80
32787;DHT22;19139;49.372;8.580;2023-06-14T03:02:40;23.10;68.70
32787;DHT22;19139;49.372;8.580;2023-06-14T03:05:09;23.10;68.70
32787;DHT22;19139;49.372;8.580;2023-06-14T03:07:36;23.10;68.80
32787;DHT22;19139;49.372;8.580;2023-06-14T03:10:08;23.10;68.90
32787;DHT22;19139;49.372;8.580;2023-06-14T03:12:35;23.00;68.80
32787;DHT22;19139;49.372;8.580;2023-06-14T03:15:03;23.00;69.00
32787;DHT22;19139;49.372;8.580;2023-06-14T03:17:30;23.00;69.30
32787;DHT22;19139;49.372;8.580;2023-06-14T03:20:00;22.90;69.60
32787;DHT22;19139;49.372;8.580;2023-06-14T03:22:27;22.90;69.80
32787;DHT22;19139;49.372;8.580;2023-06-14T03:24:55;22.80;70.00
32787;DHT22;19139;49.372;8.580;2023-06-14T03:27:21;22.80;70.50
32787;DHT22;19139;49.372;8.580;2023-06-14T03:29:48;22.70;70.80
32787;DHT22;19139;49.372;8.580;2023-06-14T03:32:15;22.60;71.40
32787;DHT22;19139;49.372;8.580;2023-06-14T03:34:41;22.50;71.80
32787;DHT22;19139;49.372;8.580;2023-06-14T03:37:09;22.30;72.00
32787;DHT22;19139;49.372;8.580;2023-06-14T03:39:35;22.40;72.20
32787;DHT22;19139;49.372;8.580;2023-06-14T03:42:03;22.30;72.30
32787;DHT22;19139;49.372;8.580;2023-06-14T03:44:30;22.30;72.40
32787;DHT22;19139;49.372;8.580;2023-06-14T03:46:56;22.30;72.40
32787;DHT22;19139;49.372;8.580;2023-06-14T03:49:23;22.30;72.50
32787;DHT22;19139;49.372;8.580;2023-06-14T03:51:50;22.20;72.50
32787;DHT22;19139;49.372;8.580;2023-06-14T03:54:17;22.30;72.60
32787;DHT22;19139;49.372;8.580;2023-06-14T03:57:04;22.20;72.60
32787;DHT22;19139;49.372;8.580;2023-06-14T03:59:31;22.20;72.80
32787;DHT22;19139;49.372;8.580;2023-06-14T04:01:58;22.20;72.90
32787;DHT22;19139;49.372;8.580;2023-06-14T04:04:24;22.20;72.90
32787;DHT22;19139;49.372;8.580;2023-06-14T04:06:56;22.20;73.00
32787;DHT22;19139;49.372;8.580;2023-06-14T04:09:25;22.20;73.00
32787;DHT22;19139;49.372;8.580;2023-06-14T04:11:52;22.10;73.20
32787;DHT22;19139;49.372;8.580;2023-06-14T04:14:19;22.20;73.30
32787;DHT22;19139;49.372;8.580;2023-06-14T04:16:47;22.20;73.30
32787;DHT22;19139;49.372;8.580;2023-06-14T04:19:14;22.10;73.50
32787;DHT22;19139;49.372;8.580;2023-06-14T04:21:42;22.10;73.50
32787;DHT22;19139;49.372;8.580;2023-06-14T04:24:09;22.10;73.80
32787;DHT22;19139;49.372;8.580;2023-06-14T04:26:41;22.10;73.70
32787;DHT22;19139;49.372;8.580;2023-06-14T04:29:08;22.10;73.70
32787;DHT22;19139;49.372;8.580;2023-06-14T04:31:35;22.00;74.10
32787;DHT22;19139;49.372;8.580;2023-06-14T04:34:04;22.00;74.70
32787;DHT22;19139;49.372;8.580;2023-06-14T04:36:35;22.00;75.10
32787;DHT22;19139;49.372;8.580;2023-06-14T04:39:04;22.00;75.40
32787;DHT22;19139;49.372;8.580;2023-06-14T04:41:32;21.90;75.40
32787;DHT22;19139;49.372;8.580;2023-06-14T04:44:02;22.00;75.40
32787;DHT22;19139;49.372;8.580;2023-06-14T04:46:30;22.00;75.00
32787;DHT22;19139;49.372;8.580;2023-06-14T04:48:58;22.00;74.90
32787;DHT22;19139;49.372;8.580;2023-06-14T04:51:28;22.00;74.90
32787;DHT22;19139;49.372;8.580;2023-06-14T04:54:00;22.10;74.80
32787;DHT22;19139;49.372;8.580;2023-06-14T04:56:27;22.00;74.90
32787;DHT22;19139;49.372;8.580;2023-06-14T04:58:55;22.10;74.80
32787;DHT22;19139;49.372;8.580;2023-06-14T05:01:23;22.10;74.60
32787;DHT22;19139;49.372;8.580;2023-06-14T05:03:50;22.10;74.50
32787;DHT22;19139;49.372;8.580;2023-06-14T05:06:17;22.10;74.70
32787;DHT22;19139;49.372;8.580;2023-06-14T05:08:43;22.10;74.90
32787;DHT22;19139;49.372;8.580;2023-06-14T05:11:10;22.10;74.90
32787;DHT22;19139;49.372;8.580;2023-06-14T05:13:37;22.20;74.70
32787;DHT22;19139;49.372;8.580;2023-06-14T05:16:03;22.10;74.80
32787;DHT22;19139;49.372;8.580;2023-06-14T05:18:30;22.10;74.90
32787;DHT22;19139;49.372;8.580;2023-06-14T05:20:57;22.20;75.00
32787;DHT22;19139;49.372;8.580;2023-06-14T05:23:23;22.10;75.10
32787;DHT22;19139;49.372;8.580;2023-06-14T05:25:50;22.10;75.30
32787;DHT22;19139;49.372;8.580;2023-06-14T05:28:17;22.10;75.40
32787;DHT22;19139;49.372;8.580;2023-06-14T05:30:44;22.20;76.20
32787;DHT22;19139;49.372;8.580;2023-06-14T05:33:11;22.20;75.20
32787;DHT22;19139;49.372;8.580;2023-06-14T05:35:37;22.20;75.40
32787;DHT22;19139;49.372;8.580;2023-06-14T05:38:04;22.10;75.40
32787;DHT22;19139;49.372;8.580;2023-06-14T05:40:32;22.10;75.60
32787;DHT22;19139;49.372;8.580;2023-06-14T05:42:58;22.20;75.60
32787;DHT22;19139;49.372;8.580;2023-06-14T05:45:25;22.30;75.80
32787;DHT22;19139;49.372;8.580;2023-06-14T05:47:52;22.40;75.70
32787;DHT22;19139;49.372;8.580;2023-06-14T05:50:21;22.40;75.80
32787;DHT22;19139;49.372;8.580;2023-06-14T05:52:48;22.40;75.70
32787;DHT22;19139;49.372;8.580;2023-06-14T05:55:16;22.50;75.60
32787;DHT22;19139;49.372;8.580;2023-06-14T05:57:44;22.50;75.40
32787;DHT22;19139;49.372;8.580;2023-06-14T06:00:11;22.60;75.60
32787;DHT22;19139;49.372;8.580;2023-06-14T06:02:41;22.60;75.60
32787;DHT22;19139;49.372;8.580;2023-06-14T06:05:10;22.60;75.60
32787;DHT22;19139;49.372;8.580;2023-06-14T06:07:37;22.60;75.60
32787;DHT22;19139;49.372;8.580;2023-06-14T06:10:05;22.60;75.70
32787;DHT22;19139;49.372;8.580;2023-06-14T06:12:32;22.60;75.80
32787;DHT22;19139;49.372;8.580;2023-06-14T06:14:59;22.60;76.20
32787;DHT22;19139;49.372;8.580;2023-06-14T06:17:26;22.70;76.00
32787;DHT22;19139;49.372;8.580;2023-06-14T06:20:01;22.70;75.80
32787;DHT22;19139;49.372;8.580;2023-06-14T06:22:28;22.70;75.60
32787;DHT22;19139;49.372;8.580;2023-06-14T06:24:54;22.80;75.60
32787;DHT22;19139;49.372;8.580;2023-06-14T06:27:21;22.80;75.70
32787;DHT22;19139;49.372;8.580;2023-06-14T06:29:48;22.80;75.70
32787;DHT22;19139;49.372;8.580;2023-06-14T06:32:15;22.80;75.50
32787;DHT22;19139;49.372;8.580;2023-06-14T06:34:42;22.90;75.50
32787;DHT22;19139;49.372;8.580;2023-06-14T06:37:09;22.90;75.30
32787;DHT22;19139;49.372;8.580;2023-06-14T06:39:35;22.90;75.40
32787;DHT22;19139;49.372;8.580;2023-06-14T06:42:02;22.90;75.50
32787;DHT22;19139;49.372;8.580;2023-06-14T06:44:29;22.90;75.50
32787;DHT22;19139;49.372;8.580;2023-06-14T06:46:57;22.90;75.50
32787;DHT22;19139;49.372;8.580;2023-06-14T06:49:23;22.90;75.60
32787;DHT22;19139;49.372;8.580;2023-06-14T06:52:04;23.00;75.70
32787;DHT22;19139;49.372;8.580;2023-06-14T06:54:32;23.00;75.50
32787;DHT22;19139;49.372;8.580;2023-06-14T06:56:59;23.00;75.30
32787;DHT22;19139;49.372;8.580;2023-06-14T06:59:26;23.00;75.10
32787;DHT22;19139;49.372;8.580;2023-06-14T07:01:53;23.00;74.90
32787;DHT22;19139;49.372;8.580;2023-06-14T07:04:20;23.00;74.90
32787;DHT22;19139;49.372;8.580;2023-06-14T07:06:47;23.10;75.00
32787;DHT22;19139;49.372;8.580;2023-06-14T07:09:14;23.10;74.80
32787;DHT22;19139;49.372;8.580;2023-06-14T07:11:43;23.20;74.60
32787;DHT22;19139;49.372;8.580;2023-06-14T07:16:40;23.30;74.40
32787;DHT22;19139;49.372;8.580;2023-06-14T07:19:07;23.40;74.60
32787;DHT22;19139;49.372;8.580;2023-06-14T07:21:35;23.40;74.60
32787;DHT22;19139;49.372;8.580;2023-06-14T07:24:05;23.50;74.60
32787;DHT22;19139;49.372;8.580;2023-06-14T07:26:36;23.50;74.50
32787;DHT22;19139;49.372;8.580;2023-06-14T07:29:02;23.50;74.40
32787;DHT22;19139;49.372;8.580;2023-06-14T07:31:29;23.50;74.40
32787;DHT22;19139;49.372;8.580;2023-06-14T07:33:56;23.60;74.40
32787;DHT22;19139;49.372;8.580;2023-06-14T07:36:23;23.60;74.30
32787;DHT22;19139;49.372;8.580;2023-06-14T07:38:50;23.60;74.20
32787;DHT22;19139;49.372;8.580;2023-06-14T07:41:16;23.60;74.00
32787;DHT22;19139;49.372;8.580;2023-06-14T07:43:43;23.60;74.10
32787;DHT22;19139;49.372;8.580;2023-06-14T07:46:10;23.60;74.00
32787;DHT22;19139;49.372;8.580;2023-06-14T07:48:37;23.60;74.00
32787;DHT22;19139;49.372;8.580;2023-06-14T07:51:03;23.60;74.10
32787;DHT22;19139;49.372;8.580;2023-06-14T07:53:30;23.70;74.20
32787;DHT22;19139;49.372;8.580;2023-06-14T07:55:57;23.60;74.30
32787;DHT22;19139;49.372;8.580;2023-06-14T07:58:24;23.70;74.30
32787;DHT22;19139;49.372;8.580;2023-06-14T08:00:50;23.70;74.40
32787;DHT22;19139;49.372;8.580;2023-06-14T08:03:17;23.70;74.40
32787;DHT22;19139;49.372;8.580;2023-06-14T08:05:45;23.70;74.40
32787;DHT22;19139;49.372;8.580;2023-06-14T08:08:11;23.70;74.40
32787;DHT22;19139;49.372;8.580;2023-06-14T08:10:39;23.80;74.40
32787;DHT22;19139;49.372;8.580;2023-06-14T08:13:06;23.80;74.50
32787;DHT22;19139;49.372;8.580;2023-06-14T08:15:33;23.80;74.40
32787;DHT22;19139;49.372;8.580;2023-06-14T08:18:00;23.80;74.40
32787;DHT22;19139;49.372;8.580;2023-06-14T08:20:27;23.80;74.40
32787;DHT22;19139;49.372;8.580;2023-06-14T08:22:54;23.90;74.60
32787;DHT22;19139;49.372;8.580;2023-06-14T08:25:23;23.90;74.60
32787;DHT22;19139;49.372;8.580;2023-06-14T08:27:50;23.90;74.60
32787;DHT22;19139;49.372;8.580;2023-06-14T08:30:16;23.90;74.60
32787;DHT22;19139;49.372;8.580;2023-06-14T08:32:44;23.90;74.70
32787;DHT22;19139;49.372;8.580;2023-06-14T08:35:11;23.90;74.70
32787;DHT22;19139;49.372;8.580;2023-06-14T08:37:40;23.90;74.60
32787;DHT22;19139;49.372;8.580;2023-06-14T08:40:21;23.90;74.50
32787;DHT22;19139;49.372;8.580;2023-06-14T08:42:50;24.00;74.50
32787;DHT22;19139;49.372;8.580;2023-06-14T08:45:22;24.00;74.40
32787;DHT22;19139;49.372;8.580;2023-06-14T08:47:53;24.00;74.30
32787;DHT22;19139;49.372;8.580;2023-06-14T08:50:25;24.00;74.30
32787;DHT22;19139;49.372;8.580;2023-06-14T08:52:57;24.00;74.20
32787;DHT22;19139;49.372;8.580;2023-06-14T08:55:27;24.00;74.10
32787;DHT22;19139;49.372;8.580;2023-06-14T08:57:55;24.00;74.00
32787;DHT22;19139;49.372;8.580;2023-06-14T09:00:27;24.00;73.90
32787;DHT22;19139;49.372;8.580;2023-06-14T09:02:55;24.00;74.50
32787;DHT22;19139;49.372;8.580;2023-06-14T09:05:26;24.00;73.70
32787;DHT22;19139;49.372;8.580;2023-06-14T09:07:54;24.00;73.60
32787;DHT22;19139;49.372;8.580;2023-06-14T09:10:22;24.00;73.50
32787;DHT22;19139;49.372;8.580;2023-06-14T09:12:51;24.10;73.40
32787;DHT22;19139;49.372;8.580;2023-06-14T09:15:17;24.00;73.30
32787;DHT22;19139;49.372;8.580;2023-06-14T09:17:44;24.10;73.30
32787;DHT22;19139;49.372;8.580;2023-06-14T09:20:11;24.10;73.30
32787;DHT22;19139;49.372;8.580;2023-06-14T09:22:45;24.10;73.40
32787;DHT22;19139;49.372;8.580;2023-06-14T09:25:12;24.10;73.40
32787;DHT22;19139;49.372;8.580;2023-06-14T09:27:59;24.10;73.50
32787;DHT22;19139;49.372;8.580;2023-06-14T09:30:25;24.10;73.50
32787;DHT22;19139;49.372;8.580;2023-06-14T09:32:53;24.20;73.50
32787;DHT22;19139;49.372;8.580;2023-06-14T09:35:20;24.20;73.60
32787;DHT22;19139;49.372;8.580;2023-06-14T09:37:47;24.20;73.60
32787;DHT22;19139;49.372;8.580;2023-06-14T09:40:20;24.20;73.70
32787;DHT22;19139;49.372;8.580;2023-06-14T09:42:47;24.20;73.70
32787;DHT22;19139;49.372;8.580;2023-06-14T09:45:15;24.20;73.70
32787;DHT22;19139;49.372;8.580;2023-06-14T09:47:47;24.20;73.70
32787;DHT22;19139;49.372;8.580;2023-06-14T09:50:31;24.20;73.70
32787;DHT22;19139;49.372;8.580;2023-06-14T09:53:06;24.20;73.70
32787;DHT22;19139;49.372;8.580;2023-06-14T09:55:37;24.20;73.70
32787;DHT22;19139;49.372;8.580;2023-06-14T09:58:06;24.20;74.50
32787;DHT22;19139;49.372;8.580;2023-06-14T10:00:34;24.20;73.70
32787;DHT22;19139;49.372;8.580;2023-06-14T10:03:16;24.20;73.80
32787;DHT22;19139;49.372;8.580;2023-06-14T10:05:47;24.20;73.70
32787;DHT22;19139;49.372;8.580;2023-06-14T10:08:16;24.30;73.80
32787;DHT22;19139;49.372;8.580;2023-06-14T10:10:44;24.20;73.70
32787;DHT22;19139;49.372;8.580;2023-06-14T10:13:12;24.30;74.00
32787;DHT22;19139;49.372;8.580;2023-06-14T10:15:58;24.30;74.10
32787;DHT22;19139;49.372;8.580;2023-06-14T10:21:02;24.30;74.30
32787;DHT22;19139;49.372;8.580;2023-06-14T10:23:37;24.30;74.30
32787;DHT22;19139;49.372;8.580;2023-06-14T10:26:04;24.30;74.90
32787;DHT22;19139;49.372;8.580;2023-06-14T10:28:31;24.40;74.10
32787;DHT22;19139;49.372;8.580;2023-06-14T10:31:11;24.40;74.40
32787;DHT22;19139;49.372;8.580;2023-06-14T10:34:11;24.30;74.50
32787;DHT22;19139;49.372;8.580;2023-06-14T10:36:42;24.40;74.60
32787;DHT22;19139;49.372;8.580;2023-06-14T10:39:15;24.40;74.70
32787;DHT22;19139;49.372;8.580;2023-06-14T10:41:53;24.40;74.70
32787;DHT22;19139;49.372;8.580;2023-06-14T10:46:54;24.40;74.90
32787;DHT22;19139;49.372;8.580;2023-06-14T10:49:37;24.40;74.90
32787;DHT22;19139;49.372;8.580;2023-06-14T10:52:08;24.40;74.70
32787;DHT22;19139;49.372;8.580;2023-06-14T10:54:59;24.40;74.70
32787;DHT22;19139;49.372;8.580;2023-06-14T10:57:26;24.40;74.50
32787;DHT22;19139;49.372;8.580;2023-06-14T10:59:52;24.40;74.50
32787;DHT22;19139;49.372;8.580;2023-06-14T11:04:52;24.40;74.30
32787;DHT22;19139;49.372;8.580;2023-06-14T11:07:34;24.50;74.50
32787;DHT22;19139;49.372;8.580;2023-06-14T11:10:38;24.50;74.70
32787;DHT22;19139;49.372;8.580;2023-06-14T11:13:06;24.50;74.90
32787;DHT22;19139;49.372;8.580;2023-06-14T11:15:34;24.50;74.90
32787;DHT22;19139;49.372;8.580;2023-06-14T11:18:06;24.50;74.90
32787;DHT22;19139;49.372;8.580;2023-06-14T11:20:34;24.50;75.00
32787;DHT22;19139;49.372;8.580;2023-06-14T11:23:04;24.50;75.20
32787;DHT22;19139;49.372;8.580;2023-06-14T11:25:32;24.50;75.20
32787;DHT22;19139;49.372;8.580;2023-06-14T11:27:58;24.50;75.40
32787;DHT22;19139;49.372;8.580;2023-06-14T11:30:25;24.50;75.30
32787;DHT22;19139;49.372;8.580;2023-06-14T11:32:53;24.60;75.40
32787;DHT22;19139;49.372;8.580;2023-06-14T11:35:24;24.60;75.40
32787;DHT22;19139;49.372;8.580;2023-06-14T11:37:57;24.60;75.50
32787;DHT22;19139;49.372;8.580;2023-06-14T11:40:26;24.60;75.50
32787;DHT22;19139;49.372;8.580;2023-06-14T11:43:02;24.60;75.60
32787;DHT22;19139;49.372;8.580;2023-06-14T11:45:29;24.60;75.60
32787;DHT22;19139;49.372;8.580;2023-06-14T11:47:57;24.60;75.60
32787;DHT22;19139;49.372;8.580;2023-06-14T11:50:25;24.60;75.60
32787;DHT22;19139;49.372;8.580;2023-06-14T11:52:56;24.60;75.60
32787;DHT22;19139;49.372;8.580;2023-06-14T11:55:24;24.60;75.60
32787;DHT22;19139;49.372;8.580;2023-06-14T11:57:53;24.60;75.70
32787;DHT22;19139;49.372;8.580;2023-06-14T12:00:25;24.60;75.70
32787;DHT22;19139;49.372;8.580;2023-06-14T12:02:53;24.60;75.70
32787;DHT22;19139;49.372;8.580;2023-06-14T12:05:23;24.60;75.80
32787;DHT22;19139;49.372;8.580;2023-06-14T12:07:50;24.60;75.80
32787;DHT22;19139;49.372;8.580;2023-06-14T12:10:20;24.60;75.80
32787;DHT22;19139;49.372;8.580;2023-06-14T12:12:46;24.70;76.00
32787;DHT22;19139;49.372;8.580;2023-06-14T12:15:13;24.70;76.00
32787;DHT22;19139;49.372;8.580;2023-06-14T12:17:42;24.70;76.00
32787;DHT22;19139;49.372;8.580;2023-06-14T12:20:12;24.70;76.00
32787;DHT22;19139;49.372;8.580;2023-06-14T12:22:53;24.70;76.00
32787;DHT22;19139;49.372;8.580;2023-06-14T12:25:30;24.60;75.90
32787;DHT22;19139;49.372;8.580;2023-06-14T12:28:10;24.70;76.10
32787;DHT22;19139;49.372;8.580;2023-06-14T12:30:37;24.70;76.10
32787;DHT22;19139;49.372;8.580;2023-06-14T12:33:05;24.70;76.20
32787;DHT22;19139;49.372;8.580;2023-06-14T12:35:32;24.70;76.30
32787;DHT22;19139;49.372;8.580;2023-06-14T12:37:59;24.70;76.20
32787;DHT22;19139;49.372;8.580;2023-06-14T12:40:26;24.80;76.30
32787;DHT22;19139;49.372;8.580;2023-06-14T12:42:53;24.80;76.40
32787;DHT22;19139;49.372;8.580;2023-06-14T12:45:19;24.80;76.40
32787;DHT22;19139;49.372;8.580;2023-06-14T12:47:46;24.80;76.40
32787;DHT22;19139;49.372;8.580;2023-06-14T12:50:13;24.80;76.40
32787;DHT22;19139;49.372;8.580;2023-06-14T12:52:40;24.80;76.40
32787;DHT22;19139;49.372;8.580;2023-06-14T12:55:07;24.80;76.40
32787;DHT22;19139;49.372;8.580;2023-06-14T12:57:35;24.80;76.40
32787;DHT22;19139;49.372;8.580;2023-06-14T13:00:04;24.80;76.40
32787;DHT22;19139;49.372;8.580;2023-06-14T13:02:32;24.80;76.40
32787;DHT22;19139;49.372;8.580;2023-06-14T13:04:59;24.80;76.40
32787;DHT22;19139;49.372;8.580;2023-06-14T13:07:26;24.80;76.50
32787;DHT22;19139;49.372;8.580;2023-06-14T13:09:53;24.80;76.30
32787;DHT22;19139;49.372;8.580;2023-06-14T13:12:20;24.80;76.30
32787;DHT22;19139;49.372;8.580;2023-06-14T13:14:46;24.90;76.40
32787;DHT22;19139;49.372;8.580;2023-06-14T13:17:13;24.80;76.20
32787;DHT22;19139;49.372;8.580;2023-06-14T13:19:40;24.80;76.10
32787;DHT22;19139;49.372;8.580;2023-06-14T13:22:08;24.80;76.00
32787;DHT22;19139;49.372;8.580;2023-06-14T13:24:35;24.80;76.10
32787;DHT22;19139;49.372;8.580;2023-06-14T13:27:02;24.80;76.00
32787;DHT22;19139;49.372;8.580;2023-06-14T13:29:29;24.80;76.00
32787;DHT22;19139;49.372;8.580;2023-06-14T13:31:57;24.80;76.00
32787;DHT22;19139;49.372;8.580;2023-06-14T13:34:24;24.80;75.90
32787;DHT22;19139;49.372;8.580;2023-06-14T13:36:50;24.80;75.80
32787;DHT22;19139;49.372;8.580;2023-06-14T13:39:17;24.80;75.70
32787;DHT22;19139;49.372;8.580;2023-06-14T13:41:44;24.80;75.80
32787;DHT22;19139;49.372;8.580;2023-06-14T13:44:10;24.80;75.80
32787;DHT22;19139;49.372;8.580;2023-06-14T13:46:58;24.80;75.60
32787;DHT22;19139;49.372;8.580;2023-06-14T13:49:42;24.80;75.40
32787;DHT22;19139;49.372;8.580;2023-06-14T13:52:26;24.80;75.40
32787;DHT22;19139;49.372;8.580;2023-06-14T13:54:53;24.80;75.40
32787;DHT22;19139;49.372;8.580;2023-06-14T13:57:37;24.80;75.40
32787;DHT22;19139;49.372;8.580;2023-06-14T14:00:04;24.80;75.30
32787;DHT22;19139;49.372;8.580;2023-06-14T14:02:49;24.80;75.30
32787;DHT22;19139;49.372;8.580;2023-06-14T14:05:34;24.80;75.30
32787;DHT22;19139;49.372;8.580;2023-06-14T14:08:18;24.80;75.20
32787;DHT22;19139;49.372;8.580;2023-06-14T14:10:45;24.80;75.20
32787;DHT22;19139;49.372;8.580;2023-06-14T14:13:12;24.80;75.20
32787;DHT22;19139;49.372;8.580;2023-06-14T14:15:39;24.80;75.20
32787;DHT22;19139;49.372;8.580;2023-06-14T14:18:05;24.90;75.20
32787;DHT22;19139;49.372;8.580;2023-06-14T14:20:49;24.90;75.20
32787;DHT22;19139;49.372;8.580;2023-06-14T14:23:34;24.80;75.20
32787;DHT22;19139;49.372;8.580;2023-06-14T14:26:18;24.90;75.60
32787;DHT22;19139;49.372;8.580;2023-06-14T14:28:46;24.80;75.10
32787;DHT22;19139;49.372;8.580;2023-06-14T14:31:12;24.90;75.20
32787;DHT22;19139;49.372;8.580;2023-06-14T14:33:39;24.90;75.10
32787;DHT22;19139;49.372;8.580;2023-06-14T14:36:06;24.90;75.10
32787;DHT22;19139;49.372;8.580;2023-06-14T14:38:33;24.90;75.10
32787;DHT22;19139;49.372;8.580;2023-06-14T14:41:00;24.90;75.00
32787;DHT22;19139;49.372;8.580;2023-06-14T14:43:27;24.90;75.00
32787;DHT22;19139;49.372;8.580;2023-06-14T14:45:57;24.90;75.00
32787;DHT22;19139;49.372;8.580;2023-06-14T14:48:24;24.90;75.10
32787;DHT22;19139;49.372;8.580;2023-06-14T14:50:50;24.90;75.00
32787;DHT22;19139;49.372;8.580;2023-06-14T14:53:17;24.90;74.90
32787;DHT22;19139;49.372;8.580;2023-06-14T14:55:44;24.90;75.00
32787;DHT22;19139;49.372;8.580;2023-06-14T14:58:12;24.90;74.90
32787;DHT22;19139;49.372;8.580;2023-06-14T15:00:39;24.90;74.90
32787;DHT22;19139;49.372;8.580;2023-06-14T15:03:05;24.90;74.90
32787;DHT22;19139;49.372;8.580;2023-06-14T15:05:32;24.90;74.90
32787;DHT22;19139;49.372;8.580;2023-06-14T15:07:59;24.90;74.90
32787;DHT22;19139;49.372;8.580;2023-06-14T15:10:26;24.90;74.90
32787;DHT22;19139;49.372;8.580;2023-06-14T15:12:52;24.90;74.80
32787;DHT22;19139;49.372;8.580;2023-06-14T15:15:19;24.90;74.70
32787;DHT22;19139;49.372;8.580;2023-06-14T15:17:46;24.90;74.70
32787;DHT22;19139;49.372;8.580;2023-06-14T15:20:13;24.90;74.70
32787;DHT22;19139;49.372;8.580;2023-06-14T15:22:41;24.90;74.70
32787;DHT22;19139;49.372;8.580;2023-06-14T15:25:08;24.90;74.70
32787;DHT22;19139;49.372;8.580;2023-06-14T15:27:34;24.90;74.70
32787;DHT22;19139;49.372;8.580;2023-06-14T15:30:02;24.90;74.70
32787;DHT22;19139;49.372;8.580;2023-06-14T15:32:29;25.00;74.70
32787;DHT22;19139;49.372;8.580;2023-06-14T15:34:56;25.00;74.70
32787;DHT22;19139;49.372;8.580;2023-06-14T15:37:23;24.90;74.70
32787;DHT22;19139;49.372;8.580;2023-06-14T15:39:50;24.90;74.60
32787;DHT22;19139;49.372;8.580;2023-06-14T15:42:16;25.00;74.70
32787;DHT22;19139;49.372;8.580;2023-06-14T15:44:43;24.90;74.60
32787;DHT22;19139;49.372;8.580;2023-06-14T15:47:10;25.00;74.70
32787;DHT22;19139;49.372;8.580;2023-06-14T15:49:36;24.90;74.60